sensor_id;sensor_type;location;lat;lon;timestamp;temperature;humidity
55219;DHT22;41088;44.012;20.902;2022-10-19T02:41:23;179.90;2252.80
55219;DHT22;41088;44.012;20.902;2022-10-19T02:44:03;179.60;2252.80
55219;DHT22;41088;44.012;20.902;2022-10-19T02:46:53;179.40;2252.80
55219;DHT22;41088;44.012;20.902;2022-10-19T02:52:08;179.70;2252.80
55219;DHT22;41088;44.012;20.902;2022-10-19T02:54:35;179.40;2252.80
55219;DHT22;41088;44.012;20.902;2022-10-19T02:57:12;179.40;2252.80
55219;DHT22;41088;44.012;20.902;2022-10-19T02:59:39;179.30;2252.80
55219;DHT22;41088;44.012;20.902;2022-10-19T03:02:08;179.30;2252.80
55219;DHT22;41088;44.012;20.902;2022-10-19T03:04:34;179.20;2252.80
55219;DHT22;41088;44.012;20.902;2022-10-19T03:07:03;179.20;2252.80
55219;DHT22;41088;44.012;20.902;2022-10-19T03:09:29;179.20;2252.80
55219;DHT22;41088;44.012;20.902;2022-10-19T03:11:55;179.30;2252.80
55219;DHT22;41088;44.012;20.902;2022-10-19T03:14:24;179.20;2252.80
55219;DHT22;41088;44.012;20.902;2022-10-19T03:16:50;179.20;2252.80
55219;DHT22;41088;44.012;20.902;2022-10-19T03:19:16;179.20;2252.80
55219;DHT22;41088;44.012;20.902;2022-10-19T03:21:42;179.20;2252.80
55219;DHT22;41088;44.012;20.902;2022-10-19T03:24:09;179.30;2252.80
55219;DHT22;41088;44.012;20.902;2022-10-19T03:26:36;179.30;2252.80
55219;DHT22;41088;44.012;20.902;2022-10-19T03:29:02;179.20;2252.80
55219;DHT22;41088;44.012;20.902;2022-10-19T03:31:30;154.50;2252.80
55219;DHT22;41088;44.012;20.902;2022-10-19T03:33:56;179.20;2252.80
55219;DHT22;41088;44.012;20.902;2022-10-19T04:01:04;179.50;2252.80
55219;DHT22;41088;44.012;20.902;2022-10-19T04:03:34;179.20;2252.80
55219;DHT22;41088;44.012;20.902;2022-10-19T04:06:02;154.50;2252.80
55219;DHT22;41088;44.012;20.902;2022-10-19T04:08:28;154.40;2252.80
55219;DHT22;41088;44.012;20.902;2022-10-19T04:10:59;154.40;2252.80
55219;DHT22;41088;44.012;20.902;2022-10-19T04:13:27;154.40;2252.80
55219;DHT22;41088;44.012;20.902;2022-10-19T04:15:53;154.40;2252.80
55219;DHT22;41088;44.012;20.902;2022-10-19T04:18:20;154.40;2252.80
55219;DHT22;41088;44.012;20.902;2022-10-19T04:20:46;154.40;2252.80
55219;DHT22;41088;44.012;20.902;2022-10-19T04:23:12;154.30;2252.80
55219;DHT22;41088;44.012;20.902;2022-10-19T04:25:38;154.30;2252.80
55219;DHT22;41088;44.012;20.902;2022-10-19T04:28:04;154.30;2252.80
55219;DHT22;41088;44.012;20.902;2022-10-19T04:30:30;154.30;2252.80
55219;DHT22;41088;44.012;20.902;2022-10-19T04:32:58;154.30;2252.80
55219;DHT22;41088;44.012;20.902;2022-10-19T04:35:25;154.10;2252.80
55219;DHT22;41088;44.012;20.902;2022-10-19T04:37:54;154.20;2252.80
55219;DHT22;41088;44.012;20.902;2022-10-19T04:40:21;154.20;2252.80
55219;DHT22;41088;44.012;20.902;2022-10-19T04:42:48;154.20;2252.80
55219;DHT22;41088;44.012;20.902;2022-10-19T04:45:15;154.20;2252.80
55219;DHT22;41088;44.012;20.902;2022-10-19T04:47:42;154.30;2252.80
55219;DHT22;41088;44.012;20.902;2022-10-19T04:50:08;154.30;2252.80
55219;DHT22;41088;44.012;20.902;2022-10-19T04:52:35;154.30;2252.80
55219;DHT22;41088;44.012;20.902;2022-10-19T04:55:04;154.30;2252.80
55219;DHT22;41088;44.012;20.902;2022-10-19T04:57:30;154.40;2252.80
55219;DHT22;41088;44.012;20.902;2022-10-19T04:59:56;154.30;2252.80
55219;DHT22;41088;44.012;20.902;2022-10-19T05:02:22;154.30;2252.80
55219;DHT22;41088;44.012;20.902;2022-10-19T05:04:49;154.30;2252.80
55219;DHT22;41088;44.012;20.902;2022-10-19T05:07:33;154.40;2252.80
55219;DHT22;41088;44.012;20.902;2022-10-19T05:10:06;154.40;2252.80
55219;DHT22;41088;44.012;20.902;2022-10-19T05:13:11;154.40;2252.80
55219;DHT22;41088;44.012;20.902;2022-10-19T05:18:51;154.50;2252.80
55219;DHT22;41088;44.012;20.902;2022-10-19T05:21:23;179.20;2252.80
55219;DHT22;41088;44.012;20.902;2022-10-19T05:23:51;179.30;2252.80
55219;DHT22;41088;44.012;20.902;2022-10-19T05:26:19;179.30;2252.80
55219;DHT22;41088;44.012;20.902;2022-10-19T05:28:49;179.30;2252.80
55219;DHT22;41088;44.012;20.902;2022-10-19T05:31:19;179.30;2252.80
55219;DHT22;41088;44.012;20.902;2022-10-19T05:33:45;179.30;2252.80
55219;DHT22;41088;44.012;20.902;2022-10-19T06:33:08;230.50;2252.80
55219;DHT22;41088;44.012;20.902;2022-10-19T06:35:34;230.50;2252.80
55219;DHT22;41088;44.012;20.902;2022-10-19T06:40:26;230.80;2252.80
55219;DHT22;41088;44.012;20.902;2022-10-19T06:42:54;231.10;2252.80
55219;DHT22;41088;44.012;20.902;2022-10-19T06:45:20;230.90;2252.80
55219;DHT22;41088;44.012;20.902;2022-10-19T06:47:46;231.00;2252.80
55219;DHT22;41088;44.012;20.902;2022-10-19T06:50:15;231.30;2252.80
55219;DHT22;41088;44.012;20.902;2022-10-19T06:52:41;256.00;2252.80
55219;DHT22;41088;44.012;20.902;2022-10-19T06:55:07;256.00;2252.80
55219;DHT22;41088;44.012;20.902;2022-10-19T06:57:33;256.10;2252.80
55219;DHT22;41088;44.012;20.902;2022-10-19T06:59:59;256.30;2252.80
55219;DHT22;41088;44.012;20.902;2022-10-19T07:02:25;256.20;2252.80
55219;DHT22;41088;44.012;20.902;2022-10-19T07:04:54;256.40;2252.80
55219;DHT22;41088;44.012;20.902;2022-10-19T07:07:23;256.50;2252.80
55219;DHT22;41088;44.012;20.902;2022-10-19T07:09:49;256.80;2252.80
55219;DHT22;41088;44.012;20.902;2022-10-19T07:12:18;256.80;2252.80
55219;DHT22;41088;44.012;20.902;2022-10-19T07:14:44;256.90;2252.80
55219;DHT22;41088;44.012;20.902;2022-10-19T07:17:10;281.90;2278.40
55219;DHT22;41088;44.012;20.902;2022-10-19T07:19:46;282.10;2278.40
55219;DHT22;41088;44.012;20.902;2022-10-19T07:22:12;282.20;2278.40
55219;DHT22;41088;44.012;20.902;2022-10-19T07:24:37;282.30;2278.40
55219;DHT22;41088;44.012;20.902;2022-10-19T07:27:03;282.20;2278.40
55219;DHT22;41088;44.012;20.902;2022-10-19T07:29:29;282.30;2278.40
55219;DHT22;41088;44.012;20.902;2022-10-19T07:34:21;307.40;2304.00
55219;DHT22;41088;44.012;20.902;2022-10-19T07:39:14;307.90;2304.00
55219;DHT22;41088;44.012;20.902;2022-10-19T07:41:43;307.70;2304.00
55219;DHT22;41088;44.012;20.902;2022-10-19T07:44:09;332.90;2329.60
55219;DHT22;41088;44.012;20.902;2022-10-19T07:46:35;308.10;2304.00
55219;DHT22;41088;44.012;20.902;2022-10-19T07:49:06;308.10;2304.00
55219;DHT22;41088;44.012;20.902;2022-10-19T07:51:35;332.80;2329.60
55219;DHT22;41088;44.012;20.902;2022-10-19T07:54:01;332.90;2329.60
55219;DHT22;41088;44.012;20.902;2022-10-19T07:56:27;333.00;2329.60
55219;DHT22;41088;44.012;20.902;2022-10-19T07:58:55;333.10;2329.60
55219;DHT22;41088;44.012;20.902;2022-10-19T08:01:32;333.20;2329.60
55219;DHT22;41088;44.012;20.902;2022-10-19T08:03:59;333.30;2329.60
55219;DHT22;41088;44.012;20.902;2022-10-19T08:06:26;333.50;2329.60
55219;DHT22;41088;44.012;20.902;2022-10-19T08:08:52;333.60;2329.60
55219;DHT22;41088;44.012;20.902;2022-10-19T08:11:33;333.70;2329.60
55219;DHT22;41088;44.012;20.902;2022-10-19T08:14:00;333.70;2329.60
55219;DHT22;41088;44.012;20.902;2022-10-19T08:16:36;358.40;2329.60
55219;DHT22;41088;44.012;20.902;2022-10-19T08:19:07;358.40;2329.60
55219;DHT22;41088;44.012;20.902;2022-10-19T08:21:34;358.50;2329.60
55219;DHT22;41088;44.012;20.902;2022-10-19T08:24:00;359.00;2329.60
55219;DHT22;41088;44.012;20.902;2022-10-19T08:26:33;358.90;2329.60
55219;DHT22;41088;44.012;20.902;2022-10-19T08:29:04;358.80;2329.60
55219;DHT22;41088;44.012;20.902;2022-10-19T08:31:31;358.80;2329.60
55219;DHT22;41088;44.012;20.902;2022-10-19T08:33:57;358.90;2329.60
55219;DHT22;41088;44.012;20.902;2022-10-19T08:36:23;359.00;2329.60
55219;DHT22;41088;44.012;20.902;2022-10-19T08:38:51;359.00;2329.60
55219;DHT22;41088;44.012;20.902;2022-10-19T08:49:19;384.50;2329.60
55219;DHT22;41088;44.012;20.902;2022-10-19T08:54:16;384.60;2329.60
55219;DHT22;41088;44.012;20.902;2022-10-19T08:57:46;384.40;2329.60
55219;DHT22;41088;44.012;20.902;2022-10-19T08:59:56;384.50;2329.60
55219;DHT22;41088;44.012;20.902;2022-10-19T09:03:22;384.80;2329.60
55219;DHT22;41088;44.012;20.902;2022-10-19T09:18:20;410.10;2355.20
55219;DHT22;41088;44.012;20.902;2022-10-19T09:20:54;409.90;2355.20
55219;DHT22;41088;44.012;20.902;2022-10-19T09:23:29;409.90;2355.20
55219;DHT22;41088;44.012;20.902;2022-10-19T09:25:56;409.90;2355.20
55219;DHT22;41088;44.012;20.902;2022-10-19T09:28:49;410.00;2355.20
55219;DHT22;41088;44.012;20.902;2022-10-19T09:31:38;410.10;2355.20
55219;DHT22;41088;44.012;20.902;2022-10-19T09:34:23;410.20;2355.20
55219;DHT22;41088;44.012;20.902;2022-10-19T09:36:52;410.40;2355.20
55219;DHT22;41088;44.012;20.902;2022-10-19T09:39:21;435.20;2355.20
55219;DHT22;41088;44.012;20.902;2022-10-19T09:44:33;435.40;2355.20
55219;DHT22;41088;44.012;20.902;2022-10-19T09:50:20;435.50;2355.20
55219;DHT22;41088;44.012;20.902;2022-10-19T09:53:02;435.70;2355.20
55219;DHT22;41088;44.012;20.902;2022-10-19T09:55:36;435.90;2355.20
55219;DHT22;41088;44.012;20.902;2022-10-19T10:00:37;436.00;2355.20
55219;DHT22;41088;44.012;20.902;2022-10-19T10:03:05;436.10;2355.20
55219;DHT22;41088;44.012;20.902;2022-10-19T10:05:36;436.10;2355.20
55219;DHT22;41088;44.012;20.902;2022-10-19T10:08:09;436.10;2355.20
55219;DHT22;41088;44.012;20.902;2022-10-19T10:10:38;460.80;2380.80
55219;DHT22;41088;44.012;20.902;2022-10-19T10:15:47;461.30;2380.80
55219;DHT22;41088;44.012;20.902;2022-10-19T10:18:16;461.10;2380.80
55219;DHT22;41088;44.012;20.902;2022-10-19T10:24:19;461.10;2380.80
55219;DHT22;41088;44.012;20.902;2022-10-19T10:26:47;461.20;2380.80
55219;DHT22;41088;44.012;20.902;2022-10-19T10:29:17;461.30;2380.80
55219;DHT22;41088;44.012;20.902;2022-10-19T10:31:49;461.30;2380.80
55219;DHT22;41088;44.012;20.902;2022-10-19T10:34:29;461.30;2380.80
55219;DHT22;41088;44.012;20.902;2022-10-19T10:36:56;461.30;2380.80
55219;DHT22;41088;44.012;20.902;2022-10-19T10:39:24;461.30;2380.80
55219;DHT22;41088;44.012;20.902;2022-10-19T11:19:53;486.80;2380.80
55219;DHT22;41088;44.012;20.902;2022-10-19T11:25:23;486.70;2380.80
55219;DHT22;41088;44.012;20.902;2022-10-19T11:28:16;486.90;2380.80
55219;DHT22;41088;44.012;20.902;2022-10-19T14:56:05;461.70;2380.80
55219;DHT22;41088;44.012;20.902;2022-10-19T14:58:36;461.60;2380.80
55219;DHT22;41088;44.012;20.902;2022-10-19T15:01:04;461.50;2380.80
55219;DHT22;41088;44.012;20.902;2022-10-19T15:03:31;461.50;2380.80
55219;DHT22;41088;44.012;20.902;2022-10-19T15:06:03;461.50;2380.80
55219;DHT22;41088;44.012;20.902;2022-10-19T15:11:05;461.50;2380.80
55219;DHT22;41088;44.012;20.902;2022-10-19T15:13:34;461.40;2380.80
55219;DHT22;41088;44.012;20.902;2022-10-19T15:16:05;461.40;2380.80
55219;DHT22;41088;44.012;20.902;2022-10-19T15:18:38;461.30;2380.80
55219;DHT22;41088;44.012;20.902;2022-10-19T15:21:18;461.30;2380.80
55219;DHT22;41088;44.012;20.902;2022-10-19T15:23:49;461.20;2380.80
55219;DHT22;41088;44.012;20.902;2022-10-19T15:26:18;461.10;2380.80
55219;DHT22;41088;44.012;20.902;2022-10-19T15:28:46;461.10;2380.80
55219;DHT22;41088;44.012;20.902;2022-10-19T15:31:15;461.00;2380.80
55219;DHT22;41088;44.012;20.902;2022-10-19T15:33:45;461.00;2380.80
55219;DHT22;41088;44.012;20.902;2022-10-19T15:36:12;460.90;2380.80
55219;DHT22;41088;44.012;20.902;2022-10-19T15:38:43;460.90;2380.80
55219;DHT22;41088;44.012;20.902;2022-10-19T15:41:18;460.80;2380.80
55219;DHT22;41088;44.012;20.902;2022-10-19T15:43:48;460.80;2380.80
55219;DHT22;41088;44.012;20.902;2022-10-19T15:48:53;436.10;2355.20
55219;DHT22;41088;44.012;20.902;2022-10-19T15:53:51;436.10;2355.20
55219;DHT22;41088;44.012;20.902;2022-10-19T15:56:18;436.10;2355.20
55219;DHT22;41088;44.012;20.902;2022-10-19T15:58:48;436.10;2355.20
55219;DHT22;41088;44.012;20.902;2022-10-19T16:01:16;436.00;2355.20
55219;DHT22;41088;44.012;20.902;2022-10-19T16:03:44;436.00;2355.20
55219;DHT22;41088;44.012;20.902;2022-10-19T16:06:10;436.00;2355.20
55219;DHT22;41088;44.012;20.902;2022-10-19T16:08:36;436.00;2355.20
55219;DHT22;41088;44.012;20.902;2022-10-19T16:11:02;436.00;2355.20
55219;DHT22;41088;44.012;20.902;2022-10-19T16:13:30;436.00;2355.20
55219;DHT22;41088;44.012;20.902;2022-10-19T16:16:03;436.00;2355.20
55219;DHT22;41088;44.012;20.902;2022-10-19T16:18:29;435.90;2355.20
55219;DHT22;41088;44.012;20.902;2022-10-19T16:20:55;435.90;2355.20
55219;DHT22;41088;44.012;20.902;2022-10-19T16:23:21;435.80;2355.20
55219;DHT22;41088;44.012;20.902;2022-10-19T16:25:47;435.80;2355.20
55219;DHT22;41088;44.012;20.902;2022-10-19T16:28:13;435.70;2355.20
55219;DHT22;41088;44.012;20.902;2022-10-19T16:30:39;435.70;2355.20
55219;DHT22;41088;44.012;20.902;2022-10-19T16:33:05;435.60;2355.20
55219;DHT22;41088;44.012;20.902;2022-10-19T16:35:30;435.60;2355.20
55219;DHT22;41088;44.012;20.902;2022-10-19T16:37:56;435.60;2355.20
55219;DHT22;41088;44.012;20.902;2022-10-19T16:40:23;435.60;2355.20
55219;DHT22;41088;44.012;20.902;2022-10-19T16:42:50;435.60;2355.20
55219;DHT22;41088;44.012;20.902;2022-10-19T16:45:16;435.60;2355.20
55219;DHT22;41088;44.012;20.902;2022-10-19T16:47:42;435.60;2355.20
55219;DHT22;41088;44.012;20.902;2022-10-19T16:50:09;435.70;2355.20
55219;DHT22;41088;44.012;20.902;2022-10-19T16:52:35;435.70;2355.20
55219;DHT22;41088;44.012;20.902;2022-10-19T16:55:01;435.70;2355.20
55219;DHT22;41088;44.012;20.902;2022-10-19T16:57:27;435.70;2355.20
55219;DHT22;41088;44.012;20.902;2022-10-19T16:59:53;435.80;2355.20
55219;DHT22;41088;44.012;20.902;2022-10-19T17:02:20;435.70;2355.20
55219;DHT22;41088;44.012;20.902;2022-10-19T17:04:46;435.70;2355.20
55219;DHT22;41088;44.012;20.902;2022-10-19T17:07:13;435.70;2355.20
55219;DHT22;41088;44.012;20.902;2022-10-19T17:09:39;435.70;2355.20
55219;DHT22;41088;44.012;20.902;2022-10-19T17:12:06;435.70;2355.20
55219;DHT22;41088;44.012;20.902;2022-10-19T17:14:32;435.70;2355.20
55219;DHT22;41088;44.012;20.902;2022-10-19T17:19:24;435.80;2355.20
55219;DHT22;41088;44.012;20.902;2022-10-19T17:21:50;435.70;2355.20
55219;DHT22;41088;44.012;20.902;2022-10-19T17:24:17;435.70;2355.20
55219;DHT22;41088;44.012;20.902;2022-10-19T17:26:44;435.70;2355.20
55219;DHT22;41088;44.012;20.902;2022-10-19T17:29:10;435.70;2355.20
55219;DHT22;41088;44.012;20.902;2022-10-19T17:31:37;435.70;2355.20
55219;DHT22;41088;44.012;20.902;2022-10-19T17:34:04;435.70;2355.20
55219;DHT22;41088;44.012;20.902;2022-10-19T17:36:32;435.70;2355.20
55219;DHT22;41088;44.012;20.902;2022-10-19T17:39:03;435.70;2355.20
55219;DHT22;41088;44.012;20.902;2022-10-19T17:41:29;435.80;2355.20
55219;DHT22;41088;44.012;20.902;2022-10-19T17:43:56;435.70;2355.20
55219;DHT22;41088;44.012;20.902;2022-10-19T17:46:24;435.70;2355.20
55219;DHT22;41088;44.012;20.902;2022-10-19T17:48:50;435.60;2355.20
55219;DHT22;41088;44.012;20.902;2022-10-19T17:51:21;435.60;2355.20
55219;DHT22;41088;44.012;20.902;2022-10-19T17:54:13;435.50;2355.20
55219;DHT22;41088;44.012;20.902;2022-10-19T17:56:40;435.50;2355.20
55219;DHT22;41088;44.012;20.902;2022-10-19T17:59:06;435.40;2355.20
55219;DHT22;41088;44.012;20.902;2022-10-19T18:01:34;435.40;2355.20
55219;DHT22;41088;44.012;20.902;2022-10-19T18:04:00;435.40;2355.20
55219;DHT22;41088;44.012;20.902;2022-10-19T18:06:31;435.30;2355.20
55219;DHT22;41088;44.012;20.902;2022-10-19T18:08:59;435.40;2355.20
55219;DHT22;41088;44.012;20.902;2022-10-19T18:11:27;435.40;2355.20
55219;DHT22;41088;44.012;20.902;2022-10-19T18:13:56;435.40;2355.20
55219;DHT22;41088;44.012;20.902;2022-10-19T18:16:25;435.40;2355.20
55219;DHT22;41088;44.012;20.902;2022-10-19T18:18:53;435.30;2355.20
55219;DHT22;41088;44.012;20.902;2022-10-19T18:21:27;435.20;2355.20
55219;DHT22;41088;44.012;20.902;2022-10-19T18:23:56;410.50;2355.20
55219;DHT22;41088;44.012;20.902;2022-10-19T18:26:25;410.50;2355.20
55219;DHT22;41088;44.012;20.902;2022-10-19T18:28:53;410.40;2355.20
55219;DHT22;41088;44.012;20.902;2022-10-19T18:31:21;410.30;2355.20
55219;DHT22;41088;44.012;20.902;2022-10-19T18:33:53;410.30;2355.20
55219;DHT22;41088;44.012;20.902;2022-10-19T18:36:21;435.20;2355.20
55219;DHT22;41088;44.012;20.902;2022-10-19T18:38:52;410.40;2355.20
55219;DHT22;41088;44.012;20.902;2022-10-19T18:41:19;410.20;2355.20
55219;DHT22;41088;44.012;20.902;2022-10-19T18:43:52;410.20;2355.20
55219;DHT22;41088;44.012;20.902;2022-10-19T18:46:19;410.10;2355.20
55219;DHT22;41088;44.012;20.902;2022-10-19T18:48:45;410.10;2355.20
55219;DHT22;41088;44.012;20.902;2022-10-19T18:51:12;410.10;2355.20
55219;DHT22;41088;44.012;20.902;2022-10-19T18:53:40;410.20;2355.20
55219;DHT22;41088;44.012;20.902;2022-10-19T18:56:08;410.30;2355.20
55219;DHT22;41088;44.012;20.902;2022-10-19T18:58:35;410.30;2355.20
55219;DHT22;41088;44.012;20.902;2022-10-19T19:01:15;410.30;2355.20
55219;DHT22;41088;44.012;20.902;2022-10-19T19:03:43;410.30;2355.20
55219;DHT22;41088;44.012;20.902;2022-10-19T19:06:21;410.20;2355.20
55219;DHT22;41088;44.012;20.902;2022-10-19T19:08:47;410.20;2355.20
55219;DHT22;41088;44.012;20.902;2022-10-19T19:11:19;410.10;2355.20
55219;DHT22;41088;44.012;20.902;2022-10-19T19:13:50;410.10;2355.20
55219;DHT22;41088;44.012;20.902;2022-10-19T19:16:16;410.00;2355.20
55219;DHT22;41088;44.012;20.902;2022-10-19T19:18:42;410.00;2355.20
55219;DHT22;41088;44.012;20.902;2022-10-19T19:21:29;410.00;2355.20
55219;DHT22;41088;44.012;20.902;2022-10-19T19:23:58;410.00;2355.20
55219;DHT22;41088;44.012;20.902;2022-10-19T19:26:26;410.00;2355.20
55219;DHT22;41088;44.012;20.902;2022-10-19T19:28:55;410.00;2355.20
55219;DHT22;41088;44.012;20.902;2022-10-19T19:31:24;409.90;2355.20
55219;DHT22;41088;44.012;20.902;2022-10-19T19:33:50;409.90;2355.20
55219;DHT22;41088;44.012;20.902;2022-10-19T19:36:17;409.90;2355.20
55219;DHT22;41088;44.012;20.902;2022-10-19T19:38:43;409.90;2355.20
55219;DHT22;41088;44.012;20.902;2022-10-19T19:41:13;409.90;2355.20
55219;DHT22;41088;44.012;20.902;2022-10-19T19:43:40;409.80;2355.20
55219;DHT22;41088;44.012;20.902;2022-10-19T19:46:10;410.10;2355.20
55219;DHT22;41088;44.012;20.902;2022-10-19T19:48:40;410.00;2355.20
55219;DHT22;41088;44.012;20.902;2022-10-19T19:51:08;409.80;2355.20
55219;DHT22;41088;44.012;20.902;2022-10-19T19:53:35;409.70;2355.20
55219;DHT22;41088;44.012;20.902;2022-10-19T19:56:01;409.60;2355.20
55219;DHT22;41088;44.012;20.902;2022-10-19T19:58:27;409.60;2355.20
55219;DHT22;41088;44.012;20.902;2022-10-19T20:00:53;409.60;2355.20
55219;DHT22;41088;44.012;20.902;2022-10-19T20:03:19;384.90;2329.60
55219;DHT22;41088;44.012;20.902;2022-10-19T20:05:44;384.90;2329.60
55219;DHT22;41088;44.012;20.902;2022-10-19T20:08:10;384.90;2329.60
55219;DHT22;41088;44.012;20.902;2022-10-19T20:10:37;384.90;2329.60
55219;DHT22;41088;44.012;20.902;2022-10-19T20:13:04;384.90;2329.60
55219;DHT22;41088;44.012;20.902;2022-10-19T20:15:30;384.80;2329.60
55219;DHT22;41088;44.012;20.902;2022-10-19T20:17:55;384.80;2329.60
55219;DHT22;41088;44.012;20.902;2022-10-19T20:20:21;384.70;2329.60
55219;DHT22;41088;44.012;20.902;2022-10-19T20:22:48;384.70;2329.60
55219;DHT22;41088;44.012;20.902;2022-10-19T20:25:14;384.60;2329.60
55219;DHT22;41088;44.012;20.902;2022-10-19T20:27:40;384.60;2329.60
55219;DHT22;41088;44.012;20.902;2022-10-19T20:30:07;384.50;2329.60
55219;DHT22;41088;44.012;20.902;2022-10-19T20:32:33;384.50;2329.60
55219;DHT22;41088;44.012;20.902;2022-10-19T20:34:58;384.50;2329.60
55219;DHT22;41088;44.012;20.902;2022-10-19T20:37:24;384.40;2329.60
55219;DHT22;41088;44.012;20.902;2022-10-19T20:39:51;384.40;2329.60
55219;DHT22;41088;44.012;20.902;2022-10-19T20:42:17;384.40;2329.60
55219;DHT22;41088;44.012;20.902;2022-10-19T20:44:44;384.30;2329.60
55219;DHT22;41088;44.012;20.902;2022-10-19T20:47:10;384.30;2329.60
55219;DHT22;41088;44.012;20.902;2022-10-19T20:49:36;384.30;2329.60
55219;DHT22;41088;44.012;20.902;2022-10-19T20:52:02;384.30;2329.60
55219;DHT22;41088;44.012;20.902;2022-10-19T20:54:28;384.30;2329.60
55219;DHT22;41088;44.012;20.902;2022-10-19T20:56:54;384.30;2329.60
55219;DHT22;41088;44.012;20.902;2022-10-19T20:59:22;384.30;2329.60
55219;DHT22;41088;44.012;20.902;2022-10-19T21:01:53;384.40;2329.60
55219;DHT22;41088;44.012;20.902;2022-10-19T21:04:19;384.40;2329.60
55219;DHT22;41088;44.012;20.902;2022-10-19T21:06:47;384.40;2329.60
55219;DHT22;41088;44.012;20.902;2022-10-19T21:09:15;384.40;2329.60
55219;DHT22;41088;44.012;20.902;2022-10-19T21:11:43;384.40;2329.60
55219;DHT22;41088;44.012;20.902;2022-10-19T21:14:15;384.40;2329.60
55219;DHT22;41088;44.012;20.902;2022-10-19T21:16:41;384.40;2329.60
55219;DHT22;41088;44.012;20.902;2022-10-19T21:19:10;384.30;2329.60
55219;DHT22;41088;44.012;20.902;2022-10-19T21:21:40;384.40;2329.60
55219;DHT22;41088;44.012;20.902;2022-10-19T21:24:09;384.30;2329.60
55219;DHT22;41088;44.012;20.902;2022-10-19T21:26:36;384.40;2329.60
55219;DHT22;41088;44.012;20.902;2022-10-19T21:29:03;384.30;2329.60
55219;DHT22;41088;44.012;20.902;2022-10-19T21:31:29;384.30;2329.60
55219;DHT22;41088;44.012;20.902;2022-10-19T21:33:55;384.40;2329.60
55219;DHT22;41088;44.012;20.902;2022-10-19T21:36:22;384.40;2329.60
55219;DHT22;41088;44.012;20.902;2022-10-19T21:38:50;384.40;2329.60
55219;DHT22;41088;44.012;20.902;2022-10-19T21:41:20;384.40;2329.60
55219;DHT22;41088;44.012;20.902;2022-10-19T21:43:45;384.50;2329.60
55219;DHT22;41088;44.012;20.902;2022-10-19T21:46:16;384.50;2329.60
55219;DHT22;41088;44.012;20.902;2022-10-19T21:48:43;384.50;2329.60
55219;DHT22;41088;44.012;20.902;2022-10-19T21:53:56;384.50;2329.60
55219;DHT22;41088;44.012;20.902;2022-10-19T21:56:23;384.60;2329.60
55219;DHT22;41088;44.012;20.902;2022-10-19T21:58:51;384.60;2329.60
55219;DHT22;41088;44.012;20.902;2022-10-19T22:01:19;384.60;2329.60
55219;DHT22;41088;44.012;20.902;2022-10-19T22:03:45;384.60;2329.60
55219;DHT22;41088;44.012;20.902;2022-10-19T22:06:12;384.60;2329.60
55219;DHT22;41088;44.012;20.902;2022-10-19T22:08:39;384.60;2329.60
55219;DHT22;41088;44.012;20.902;2022-10-19T22:11:09;384.60;2329.60
55219;DHT22;41088;44.012;20.902;2022-10-19T22:13:35;384.60;2329.60
55219;DHT22;41088;44.012;20.902;2022-10-19T22:16:03;384.60;2329.60
55219;DHT22;41088;44.012;20.902;2022-10-19T22:18:29;384.60;2329.60
55219;DHT22;41088;44.012;20.902;2022-10-19T22:20:55;384.60;2329.60
55219;DHT22;41088;44.012;20.902;2022-10-19T22:23:20;384.60;2329.60
55219;DHT22;41088;44.012;20.902;2022-10-19T22:25:46;384.50;2329.60
55219;DHT22;41088;44.012;20.902;2022-10-19T22:28:12;384.50;2329.60
55219;DHT22;41088;44.012;20.902;2022-10-19T22:30:38;384.50;2329.60
55219;DHT22;41088;44.012;20.902;2022-10-19T22:33:05;384.60;2329.60
55219;DHT22;41088;44.012;20.902;2022-10-19T22:35:31;384.50;2329.60
55219;DHT22;41088;44.012;20.902;2022-10-19T22:37:57;384.50;2329.60
55219;DHT22;41088;44.012;20.902;2022-10-19T22:40:22;384.50;2329.60
55219;DHT22;41088;44.012;20.902;2022-10-19T22:42:48;384.50;2329.60
55219;DHT22;41088;44.012;20.902;2022-10-19T22:45:14;384.50;2329.60
55219;DHT22;41088;44.012;20.902;2022-10-19T22:47:40;384.50;2329.60
55219;DHT22;41088;44.012;20.902;2022-10-19T22:50:06;384.50;2329.60
55219;DHT22;41088;44.012;20.902;2022-10-19T22:52:34;384.40;2329.60
55219;DHT22;41088;44.012;20.902;2022-10-19T22:57:25;384.70;2329.60
55219;DHT22;41088;44.012;20.902;2022-10-19T23:02:22;384.60;2329.60
55219;DHT22;41088;44.012;20.902;2022-10-19T23:04:47;384.10;2329.60
55219;DHT22;41088;44.012;20.902;2022-10-19T23:07:13;384.10;2329.60
55219;DHT22;41088;44.012;20.902;2022-10-19T23:09:39;384.00;2329.60
55219;DHT22;41088;44.012;20.902;2022-10-19T23:58:31;358.90;2329.60
